Time;durP1;ratioP1;P1;durP2;ratioP2;P2;SDS_P1;SDS_P2;PMS_P1;PMS_P2;Temp;Humidity;BMP_temperature;BMP_pressure;BME280_temperature;BME280_humidity;BME280_pressure;Samples;Min_cycle;Max_cycle;Signal;HPM_P1;HPM_P2
2023/08/25 00:00:45;;;;;;;13.30;12.20;;;;;;;;;;5034593;28;20694;-79
2023/08/25 00:03:11;;;;;;;13.13;12.23;;;;;;;;;;5033548;28;20041;-79
2023/08/25 00:05:37;;;;;;;13.63;12.63;;;;;;;;;;5031982;28;20072;-80
2023/08/25 00:08:03;;;;;;;13.15;12.25;;;;;;;;;;5031646;28;20128;-79
2023/08/25 00:10:29;;;;;;;13.05;12.05;;;;;;;;;;5029210;28;20076;-79
2023/08/25 00:12:55;;;;;;;12.93;12.13;;;;;;;;;;5027598;28;20586;-79
2023/08/25 00:15:21;;;;;;;13.40;12.50;;;;;;;;;;5028765;28;20081;-78
2023/08/25 00:17:46;;;;;;;13.77;12.68;;;;;;;;;;5011374;28;20428;-78
2023/08/25 00:20:13;;;;;;;13.07;12.10;;;;;;;;;;5026211;28;20038;-79
2023/08/25 00:22:40;;;;;;;13.38;12.48;;;;;;;;;;5027365;28;20034;-78
2023/08/25 00:25:06;;;;;;;13.05;12.15;;;;;;;;;;5025778;28;20060;-79
2023/08/25 00:27:31;;;;;;;12.50;11.60;;;;;;;;;;5009700;28;20033;-78
2023/08/25 00:29:57;;;;;;;12.65;11.85;;;;;;;;;;5027372;28;20044;-79
2023/08/25 00:32:23;;;;;;;12.15;11.30;;;;;;;;;;5028102;28;20061;-77
2023/08/25 00:34:48;;;;;;;12.50;11.60;;;;;;;;;;5026869;28;20029;-78
2023/08/25 00:37:14;;;;;;;13.05;12.05;;;;;;;;;;5025619;28;20505;-78
2023/08/25 00:39:39;;;;;;;13.60;12.70;;;;;;;;;;5010025;28;20045;-78
2023/08/25 00:42:05;;;;;;;12.65;11.75;;;;;;;;;;5059884;28;20049;-79
2023/08/25 00:44:31;;;;;;;13.20;12.20;;;;;;;;;;5024498;28;20044;-76
2023/08/25 00:46:57;;;;;;;13.23;12.32;;;;;;;;;;5044832;28;20030;-78
2023/08/25 00:49:23;;;;;;;12.45;11.65;;;;;;;;;;5026783;28;20083;-77
2023/08/25 00:51:51;;;;;;;12.82;12.02;;;;;;;;;;5012846;28;20145;-78
2023/08/25 00:54:18;;;;;;;13.27;12.43;;;;;;;;;;5025466;28;20036;-78
2023/08/25 00:56:45;;;;;;;13.32;12.30;;;;;;;;;;5016668;28;20042;-78
2023/08/25 00:59:11;;;;;;;13.77;12.65;;;;;;;;;;5028022;28;20400;-77
2023/08/25 01:01:37;;;;;;;13.13;12.27;;;;;;;;;;5008713;28;20116;-78
2023/08/25 01:04:03;;;;;;;13.40;12.27;;;;;;;;;;5027313;28;20128;-78
2023/08/25 01:06:29;;;;;;;13.80;12.68;;;;;;;;;;5026481;28;20029;-78
2023/08/25 01:08:54;;;;;;;12.68;11.60;;;;;;;;;;5027762;28;20034;-78
2023/08/25 01:11:58;;;;;;;13.07;11.98;;;;;;;;;;4994656;28;20179;-78
2023/08/25 01:14:26;;;;;;;13.02;12.13;;;;;;;;;;5010123;28;20103;-78
2023/08/25 01:17:07;;;;;;;13.10;11.90;;;;;;;;;;5028097;28;20072;-77
2023/08/25 01:19:56;;;;;;;12.75;11.70;;;;;;;;;;5026613;28;20037;-76
2023/08/25 01:22:33;;;;;;;12.82;11.77;;;;;;;;;;5026092;28;20033;-77
2023/08/25 01:25:21;;;;;;;12.95;12.15;;;;;;;;;;5027803;28;20037;-78
2023/08/25 01:27:49;;;;;;;13.40;12.23;;;;;;;;;;5026162;28;20033;-77
2023/08/25 01:30:15;;;;;;;12.97;11.90;;;;;;;;;;5025916;28;20453;-76
2023/08/25 01:32:40;;;;;;;13.45;12.45;;;;;;;;;;5028903;28;20121;-76
2023/08/25 01:35:06;;;;;;;12.85;11.95;;;;;;;;;;5029005;28;20048;-77
2023/08/25 01:37:40;;;;;;;12.95;11.90;;;;;;;;;;5025285;28;20127;-77
2023/08/25 01:40:13;;;;;;;12.93;12.02;;;;;;;;;;5028700;28;20037;-78
2023/08/25 01:42:42;;;;;;;12.75;11.77;;;;;;;;;;5013507;28;20080;-76
2023/08/25 01:45:09;;;;;;;13.80;12.57;;;;;;;;;;5028403;28;20057;-77
2023/08/25 01:47:35;;;;;;;12.85;11.95;;;;;;;;;;5027167;28;20092;-77
2023/08/25 01:50:04;;;;;;;;;;;;;;;;;;5028892;28;20057;-77
2023/08/25 01:52:30;;;;;;;12.68;11.77;;;;;;;;;;5038287;28;20376;-78
2023/08/25 01:54:56;;;;;;;12.05;11.25;;;;;;;;;;5027988;28;20048;-77
2023/08/25 01:57:22;;;;;;;12.95;12.02;;;;;;;;;;5010731;28;20584;-76
2023/08/25 01:59:48;;;;;;;12.95;11.95;;;;;;;;;;5026724;28;20041;-76
2023/08/25 02:02:13;;;;;;;12.77;11.80;;;;;;;;;;5025585;28;20064;-76
2023/08/25 02:04:39;;;;;;;13.60;12.65;;;;;;;;;;5026252;28;20865;-77
2023/08/25 02:07:05;;;;;;;12.95;12.05;;;;;;;;;;5026301;28;20493;-76
2023/08/25 02:09:31;;;;;;;13.18;12.18;;;;;;;;;;5026618;28;20045;-76
2023/08/25 02:11:57;;;;;;;13.20;12.18;;;;;;;;;;5025571;28;20028;-77
2023/08/25 02:14:22;;;;;;;12.77;11.93;;;;;;;;;;5027960;28;20068;-76
2023/08/25 02:16:48;;;;;;;12.45;11.65;;;;;;;;;;5024630;28;20029;-76
2023/08/25 02:19:13;;;;;;;13.07;12.18;;;;;;;;;;5026387;28;20064;-76
2023/08/25 02:21:39;;;;;;;13.32;11.95;;;;;;;;;;5009366;28;20048;-77
2023/08/25 02:24:05;;;;;;;12.93;11.93;;;;;;;;;;5025749;28;20470;-78
2023/08/25 02:26:32;;;;;;;12.80;11.63;;;;;;;;;;5023022;28;20701;-78
2023/08/25 02:28:58;;;;;;;12.48;11.57;;;;;;;;;;5025497;28;20069;-75
2023/08/25 02:31:25;;;;;;;13.70;12.35;;;;;;;;;;5009664;28;20059;-76
2023/08/25 02:33:50;;;;;;;12.77;11.82;;;;;;;;;;5026542;28;20432;-75
2023/08/25 02:36:17;;;;;;;12.93;12.02;;;;;;;;;;5025332;28;20064;-75
2023/08/25 02:38:42;;;;;;;12.52;11.50;;;;;;;;;;5025359;28;20644;-76
2023/08/25 02:41:08;;;;;;;12.60;11.50;;;;;;;;;;5027022;28;20030;-78
2023/08/25 02:43:33;;;;;;;12.63;11.50;;;;;;;;;;5025381;28;20043;-76
2023/08/25 02:45:59;;;;;;;12.63;11.73;;;;;;;;;;5021535;28;20174;-76
2023/08/25 02:48:25;;;;;;;12.68;11.88;;;;;;;;;;5025426;28;20034;-76
2023/08/25 02:50:51;;;;;;;12.82;11.93;;;;;;;;;;5010447;28;20069;-76
2023/08/25 02:53:16;;;;;;;12.70;11.90;;;;;;;;;;5009285;28;20036;-76
2023/08/25 02:55:42;;;;;;;13.05;11.85;;;;;;;;;;5024724;28;20045;-76
2023/08/25 02:58:07;;;;;;;12.75;11.65;;;;;;;;;;5027603;28;20508;-77
2023/08/25 03:00:33;;;;;;;12.57;11.65;;;;;;;;;;5027168;28;20516;-75
2023/08/25 03:02:59;;;;;;;13.73;12.48;;;;;;;;;;5009585;28;20041;-78
2023/08/25 03:05:25;;;;;;;12.50;11.70;;;;;;;;;;5026239;28;20033;-78
2023/08/25 03:07:52;;;;;;;12.70;11.90;;;;;;;;;;5027877;28;20041;-77
2023/08/25 03:10:17;;;;;;;13.18;12.05;;;;;;;;;;5010995;28;20044;-76
2023/08/25 03:12:43;;;;;;;12.88;11.98;;;;;;;;;;5026293;28;20037;-77
2023/08/25 03:15:09;;;;;;;12.93;11.55;;;;;;;;;;5027020;28;20036;-76
2023/08/25 03:17:35;;;;;;;12.02;11.30;;;;;;;;;;5028343;28;20033;-77
2023/08/25 03:20:02;;;;;;;13.68;12.30;;;;;;;;;;5026839;28;20513;-75
2023/08/25 03:22:28;;;;;;;12.63;11.55;;;;;;;;;;5008507;28;20029;-76
2023/08/25 03:24:54;;;;;;;13.35;12.02;;;;;;;;;;5025304;28;20037;-76
2023/08/25 03:27:20;;;;;;;13.07;12.13;;;;;;;;;;5025451;28;20386;-77
2023/08/25 03:29:45;;;;;;;12.90;11.90;;;;;;;;;;5008171;28;20035;-77
2023/08/25 03:32:11;;;;;;;13.02;12.02;;;;;;;;;;5023400;28;20048;-77
2023/08/25 03:34:37;;;;;;;14.15;12.68;;;;;;;;;;5026657;28;20491;-78
2023/08/25 03:37:03;;;;;;;13.52;12.43;;;;;;;;;;5023991;28;20475;-76
2023/08/25 03:39:29;;;;;;;13.02;12.05;;;;;;;;;;5028245;28;20037;-76
2023/08/25 03:41:55;;;;;;;13.32;12.23;;;;;;;;;;5026278;28;20029;-75
2023/08/25 03:44:20;;;;;;;13.02;12.13;;;;;;;;;;5025160;28;20091;-76
2023/08/25 03:46:46;;;;;;;12.93;12.02;;;;;;;;;;5024709;28;20117;-77
2023/08/25 03:49:12;;;;;;;12.25;11.35;;;;;;;;;;5026382;28;20037;-76
2023/08/25 03:51:38;;;;;;;12.52;11.57;;;;;;;;;;5025964;28;20041;-77
2023/08/25 03:54:06;;;;;;;13.30;12.00;;;;;;;;;;5023320;28;20033;-76
2023/08/25 03:56:32;;;;;;;12.73;11.82;;;;;;;;;;5024709;28;20083;-76
2023/08/25 03:58:58;;;;;;;13.73;12.70;;;;;;;;;;5025117;28;20072;-77
2023/08/25 04:01:23;;;;;;;12.60;11.63;;;;;;;;;;5023126;28;20937;-76
2023/08/25 04:03:49;;;;;;;13.23;12.32;;;;;;;;;;5007959;28;20063;-76
2023/08/25 04:06:15;;;;;;;13.82;12.02;;;;;;;;;;5024533;28;20033;-75
2023/08/25 04:08:42;;;;;;;13.32;12.35;;;;;;;;;;5024860;28;20029;-76
2023/08/25 04:11:08;;;;;;;13.32;12.45;;;;;;;;;;5007709;28;20053;-76
2023/08/25 04:13:34;;;;;;;12.85;11.80;;;;;;;;;;5027635;28;20033;-75
2023/08/25 04:16:02;;;;;;;13.32;12.23;;;;;;;;;;5024727;28;20033;-75
2023/08/25 04:18:29;;;;;;;;;;;;;;;;;;5025272;28;20033;-76
2023/08/25 04:20:55;;;;;;;13.07;11.95;;;;;;;;;;5024289;28;19983;-75
2023/08/25 04:23:24;;;;;;;14.00;12.57;;;;;;;;;;5023448;28;20555;-75
2023/08/25 04:25:50;;;;;;;;;;;;;;;;;;5025634;28;20030;-74
2023/08/25 04:28:16;;;;;;;14.52;12.65;;;;;;;;;;5023399;28;20368;-75
2023/08/25 04:30:42;;;;;;;14.55;12.35;;;;;;;;;;5006634;28;20116;-75
2023/08/25 04:33:17;;;;;;;13.95;12.93;;;;;;;;;;5022809;28;20035;-75
2023/08/25 04:35:43;;;;;;;13.75;12.48;;;;;;;;;;5023192;28;20116;-75
2023/08/25 04:38:09;;;;;;;13.40;12.40;;;;;;;;;;5022839;28;20443;-75
2023/08/25 04:40:34;;;;;;;14.43;13.20;;;;;;;;;;5004703;28;20034;-75
2023/08/25 04:43:00;;;;;;;14.15;12.85;;;;;;;;;;5023907;28;20033;-74
2023/08/25 04:45:27;;;;;;;14.45;13.30;;;;;;;;;;5020977;28;20128;-76
2023/08/25 04:47:53;;;;;;;14.10;13.10;;;;;;;;;;5021825;28;20037;-75
2023/08/25 04:50:21;;;;;;;14.27;13.07;;;;;;;;;;5005018;28;20037;-76
2023/08/25 04:52:46;;;;;;;17.92;13.45;;;;;;;;;;5020562;28;20037;-76
2023/08/25 04:55:12;;;;;;;14.70;13.40;;;;;;;;;;5006010;28;20084;-76
2023/08/25 04:57:41;;;;;;;14.75;13.55;;;;;;;;;;5023229;28;20485;-75
2023/08/25 05:00:08;;;;;;;14.13;12.93;;;;;;;;;;5024599;28;20477;-76
2023/08/25 05:02:34;;;;;;;13.70;12.70;;;;;;;;;;5023342;28;20573;-75
2023/08/25 05:05:03;;;;;;;16.30;14.73;;;;;;;;;;5023873;28;20033;-75
2023/08/25 05:07:29;;;;;;;14.90;13.60;;;;;;;;;;5023361;28;20029;-75
2023/08/25 05:09:55;;;;;;;15.68;14.18;;;;;;;;;;4992640;28;20064;-76
2023/08/25 05:12:20;;;;;;;15.60;14.10;;;;;;;;;;5027196;28;20120;-76
2023/08/25 05:14:46;;;;;;;14.82;13.50;;;;;;;;;;5026407;28;20026;-76
2023/08/25 05:17:12;;;;;;;14.00;12.50;;;;;;;;;;5031577;28;20030;-75
2023/08/25 05:19:38;;;;;;;13.60;12.43;;;;;;;;;;5026687;28;20071;-76
2023/08/25 05:22:04;;;;;;;14.23;12.93;;;;;;;;;;5011036;28;20045;-75
2023/08/25 05:24:31;;;;;;;13.77;12.70;;;;;;;;;;5028777;28;20044;-76
2023/08/25 05:26:56;;;;;;;13.52;12.52;;;;;;;;;;5010006;28;20337;-76
2023/08/25 05:29:24;;;;;;;13.38;12.35;;;;;;;;;;5026598;28;20059;-76
2023/08/25 05:31:52;;;;;;;13.45;12.25;;;;;;;;;;5025363;28;20067;-76
2023/08/25 05:34:31;;;;;;;13.13;12.13;;;;;;;;;;5026020;28;20037;-75
2023/08/25 05:37:01;;;;;;;13.57;12.38;;;;;;;;;;5013505;28;20048;-76
2023/08/25 05:39:27;;;;;;;13.20;12.00;;;;;;;;;;5027417;28;20083;-76
2023/08/25 05:41:53;;;;;;;13.93;12.82;;;;;;;;;;5013945;28;20045;-76
2023/08/25 05:44:19;;;;;;;12.60;11.70;;;;;;;;;;5010180;28;20189;-76
2023/08/25 05:46:44;;;;;;;13.27;12.20;;;;;;;;;;5027483;28;20413;-76
2023/08/25 05:49:10;;;;;;;13.75;12.75;;;;;;;;;;5059536;28;20044;-76
2023/08/25 05:51:36;;;;;;;13.52;12.65;;;;;;;;;;5033391;28;20033;-76
2023/08/25 05:54:02;;;;;;;13.43;12.18;;;;;;;;;;5010504;28;20554;-76
2023/08/25 05:56:27;;;;;;;13.48;12.43;;;;;;;;;;5024896;28;20160;-77
2023/08/25 05:58:54;;;;;;;13.80;12.50;;;;;;;;;;5029105;28;20033;-76
2023/08/25 06:01:20;;;;;;;13.93;12.55;;;;;;;;;;5030095;28;20503;-76
2023/08/25 06:03:46;;;;;;;13.55;12.35;;;;;;;;;;5026374;28;20083;-78
2023/08/25 06:06:12;;;;;;;12.90;11.70;;;;;;;;;;5025709;28;20404;-77
2023/08/25 06:08:37;;;;;;;13.40;12.13;;;;;;;;;;5026366;28;20033;-77
2023/08/25 06:11:03;;;;;;;13.50;12.30;;;;;;;;;;5027634;28;20044;-77
2023/08/25 06:13:29;;;;;;;12.73;11.82;;;;;;;;;;5022792;28;20559;-77
2023/08/25 06:15:55;;;;;;;12.45;11.55;;;;;;;;;;5026789;28;20037;-77
2023/08/25 06:18:20;;;;;;;13.00;12.00;;;;;;;;;;5027140;28;20092;-77
2023/08/25 06:20:49;;;;;;;13.88;11.90;;;;;;;;;;5025860;28;20037;-76
2023/08/25 06:23:15;;;;;;;13.75;12.45;;;;;;;;;;5025500;28;20507;-76
2023/08/25 06:25:41;;;;;;;16.70;12.45;;;;;;;;;;5027229;28;20033;-76
2023/08/25 06:28:06;;;;;;;13.68;12.35;;;;;;;;;;5025381;28;20114;-76
2023/08/25 06:30:35;;;;;;;13.15;11.88;;;;;;;;;;5025943;28;20354;-77
2023/08/25 06:33:01;;;;;;;13.25;12.02;;;;;;;;;;5025251;28;20057;-76
2023/08/25 06:35:27;;;;;;;13.10;11.90;;;;;;;;;;5058465;28;20047;-76
2023/08/25 06:37:53;;;;;;;12.85;11.43;;;;;;;;;;5027183;28;20108;-76
2023/08/25 06:40:19;;;;;;;12.45;11.32;;;;;;;;;;5024748;28;20064;-76
2023/08/25 06:42:45;;;;;;;13.13;12.13;;;;;;;;;;5026549;28;20110;-75
2023/08/25 06:45:11;;;;;;;13.23;12.23;;;;;;;;;;5025090;28;20037;-77
2023/08/25 06:47:38;;;;;;;13.73;12.30;;;;;;;;;;5025718;28;20473;-77
2023/08/25 06:50:05;;;;;;;12.70;11.60;;;;;;;;;;5024291;28;20734;-76
2023/08/25 06:52:31;;;;;;;13.55;12.38;;;;;;;;;;5025857;28;20121;-76
2023/08/25 06:54:58;;;;;;;12.85;11.75;;;;;;;;;;5009563;28;20073;-76
2023/08/25 06:57:24;;;;;;;13.45;12.35;;;;;;;;;;5018074;28;20036;-74
2023/08/25 06:59:50;;;;;;;12.52;11.50;;;;;;;;;;5023725;28;20029;-75
2023/08/25 07:02:16;;;;;;;12.48;11.48;;;;;;;;;;5023930;28;20025;-74
2023/08/25 07:04:42;;;;;;;13.20;12.10;;;;;;;;;;5024370;28;20040;-76
2023/08/25 07:07:07;;;;;;;12.65;11.50;;;;;;;;;;5024682;28;20037;-74
2023/08/25 07:09:34;;;;;;;13.25;12.05;;;;;;;;;;5025679;28;20041;-74
2023/08/25 07:12:00;;;;;;;12.90;11.82;;;;;;;;;;5025918;28;20033;-75
2023/08/25 07:14:29;;;;;;;12.98;11.73;;;;;;;;;;5025891;28;20029;-73
2023/08/25 07:16:54;;;;;;;12.80;11.73;;;;;;;;;;5025249;28;20033;-74
2023/08/25 07:19:20;;;;;;;13.02;12.02;;;;;;;;;;5009446;28;20748;-76
2023/08/25 07:21:45;;;;;;;13.32;12.13;;;;;;;;;;5025922;28;20033;-75
2023/08/25 07:24:11;;;;;;;13.35;12.23;;;;;;;;;;5025439;28;20033;-73
2023/08/25 07:26:37;;;;;;;13.00;11.77;;;;;;;;;;5023910;28;20508;-73
2023/08/25 07:29:02;;;;;;;13.52;12.27;;;;;;;;;;5025454;28;20477;-75
2023/08/25 07:31:28;;;;;;;13.10;11.90;;;;;;;;;;5024967;28;20564;-75
2023/08/25 07:33:53;;;;;;;23.35;16.52;;;;;;;;;;5026823;28;20037;-76
2023/08/25 07:36:19;;;;;;;17.58;16.10;;;;;;;;;;5023464;28;20060;-75
2023/08/25 07:38:45;;;;;;;17.00;15.60;;;;;;;;;;5024324;28;20432;-73
2023/08/25 07:41:13;;;;;;;17.33;15.90;;;;;;;;;;5025627;28;20390;-75
2023/08/25 07:43:38;;;;;;;18.40;16.58;;;;;;;;;;5019061;28;20033;-75
2023/08/25 07:46:04;;;;;;;18.65;17.05;;;;;;;;;;5014102;28;20059;-76
2023/08/25 07:48:30;;;;;;;18.00;16.40;;;;;;;;;;5006151;28;20095;-79
2023/08/25 07:50:55;;;;;;;17.00;15.48;;;;;;;;;;5003698;28;20068;-76
2023/08/25 07:53:21;;;;;;;16.98;15.45;;;;;;;;;;5020341;28;20042;-77
2023/08/25 07:55:47;;;;;;;18.08;16.42;;;;;;;;;;5018998;28;20033;-77
2023/08/25 07:58:13;;;;;;;17.70;16.00;;;;;;;;;;5019332;28;20439;-75
2023/08/25 08:00:38;;;;;;;17.27;15.93;;;;;;;;;;5018651;28;20045;-75
2023/08/25 08:03:09;;;;;;;17.02;15.68;;;;;;;;;;5021601;28;20107;-76
2023/08/25 08:05:36;;;;;;;17.35;15.98;;;;;;;;;;5006586;28;20037;-74
2023/08/25 08:08:02;;;;;;;17.25;15.75;;;;;;;;;;5024563;28;20088;-77
2023/08/25 08:10:28;;;;;;;17.58;16.23;;;;;;;;;;5022776;28;20064;-74
2023/08/25 08:12:53;;;;;;;17.50;16.02;;;;;;;;;;5021563;28;20431;-76
2023/08/25 08:15:19;;;;;;;17.83;16.33;;;;;;;;;;5022052;28;20033;-75
2023/08/25 08:17:44;;;;;;;18.08;16.65;;;;;;;;;;5020693;28;20710;-75
2023/08/25 08:20:14;;;;;;;18.27;16.58;;;;;;;;;;5020687;28;20482;-77
2023/08/25 08:22:41;;;;;;;18.67;17.05;;;;;;;;;;5021113;28;20037;-76
2023/08/25 08:25:10;;;;;;;16.55;15.40;;;;;;;;;;5015518;28;20122;-76
2023/08/25 08:27:37;;;;;;;19.05;15.98;;;;;;;;;;5017249;28;20041;-74
2023/08/25 08:30:03;;;;;;;16.42;15.10;;;;;;;;;;5021413;28;20062;-76
2023/08/25 08:32:29;;;;;;;15.90;14.80;;;;;;;;;;5019232;28;20126;-78
2023/08/25 08:34:55;;;;;;;16.05;14.85;;;;;;;;;;5024113;28;20143;-77
2023/08/25 08:37:21;;;;;;;16.35;14.98;;;;;;;;;;5023289;28;20037;-79
2023/08/25 08:39:47;;;;;;;16.73;15.45;;;;;;;;;;5027210;28;20033;-79
2023/08/25 08:42:14;;;;;;;27.10;14.88;;;;;;;;;;4996042;28;20117;-76
2023/08/25 08:44:46;;;;;;;16.65;15.15;;;;;;;;;;5014032;28;20392;-77
2023/08/25 08:47:13;;;;;;;16.77;15.38;;;;;;;;;;5034000;28;20417;-77
2023/08/25 08:49:40;;;;;;;16.60;15.10;;;;;;;;;;5026712;28;20128;-78
2023/08/25 08:52:07;;;;;;;16.30;14.77;;;;;;;;;;5025498;28;20037;-77
2023/08/25 08:54:35;;;;;;;17.02;15.45;;;;;;;;;;5029724;28;20097;-77
2023/08/25 08:57:01;;;;;;;16.60;15.32;;;;;;;;;;5013090;28;20034;-77
2023/08/25 08:59:27;;;;;;;16.42;14.93;;;;;;;;;;5025487;28;20041;-76
2023/08/25 09:01:54;;;;;;;15.85;14.52;;;;;;;;;;5025768;28;20470;-76
2023/08/25 09:04:21;;;;;;;16.00;14.57;;;;;;;;;;5026567;28;20087;-76
2023/08/25 09:06:51;;;;;;;15.63;14.52;;;;;;;;;;5027481;28;20029;-77
2023/08/25 09:09:19;;;;;;;16.45;15.05;;;;;;;;;;5026570;28;20535;-77
2023/08/25 09:11:48;;;;;;;15.55;14.20;;;;;;;;;;5021876;28;20156;-77
2023/08/25 09:14:22;;;;;;;15.70;14.65;;;;;;;;;;5027435;28;20025;-75
2023/08/25 09:16:48;;;;;;;15.52;14.38;;;;;;;;;;5025836;28;20108;-77
2023/08/25 09:19:16;;;;;;;16.02;14.82;;;;;;;;;;5024694;28;20136;-77
2023/08/25 09:21:46;;;;;;;16.57;15.27;;;;;;;;;;5022585;28;20220;-75
2023/08/25 09:24:17;;;;;;;16.45;15.13;;;;;;;;;;5023976;28;20041;-75
2023/08/25 09:26:43;;;;;;;16.15;14.95;;;;;;;;;;5021829;28;20163;-75
2023/08/25 09:29:10;;;;;;;16.08;14.85;;;;;;;;;;5025414;28;20128;-75
2023/08/25 09:31:36;;;;;;;16.70;15.30;;;;;;;;;;5005574;28;20147;-74
2023/08/25 09:34:05;;;;;;;16.65;15.15;;;;;;;;;;5025666;28;20029;-75
2023/08/25 09:36:30;;;;;;;16.53;15.13;;;;;;;;;;5015004;28;20819;-75
2023/08/25 09:38:57;;;;;;;15.32;14.23;;;;;;;;;;5024825;28;20026;-74
2023/08/25 09:41:28;;;;;;;14.88;13.88;;;;;;;;;;5025652;28;20137;-73
2023/08/25 09:43:58;;;;;;;17.38;16.15;;;;;;;;;;5022735;28;20048;-73
2023/08/25 09:46:31;;;;;;;15.65;14.55;;;;;;;;;;5018027;28;20134;-74
2023/08/25 09:49:04;;;;;;;15.18;14.00;;;;;;;;;;5023313;28;20457;-74
2023/08/25 09:51:34;;;;;;;14.95;13.85;;;;;;;;;;5022873;28;20455;-74
2023/08/25 09:54:05;;;;;;;15.80;14.63;;;;;;;;;;5017783;28;20033;-73
2023/08/25 09:56:33;;;;;;;15.63;14.30;;;;;;;;;;5022512;28;20045;-73
2023/08/25 09:59:00;;;;;;;14.73;13.80;;;;;;;;;;5019816;28;20033;-73
2023/08/25 10:01:25;;;;;;;14.63;13.68;;;;;;;;;;5021440;28;20306;-73
2023/08/25 10:03:53;;;;;;;15.15;13.95;;;;;;;;;;5048999;28;20033;-73
2023/08/25 10:06:19;;;;;;;14.50;13.50;;;;;;;;;;5025365;28;20041;-74
2023/08/25 10:08:46;;;;;;;15.05;13.60;;;;;;;;;;5021521;28;20029;-73
2023/08/25 10:11:14;;;;;;;14.05;13.07;;;;;;;;;;5022987;28;20041;-72
2023/08/25 10:13:42;;;;;;;13.93;12.80;;;;;;;;;;5022503;28;20049;-73
2023/08/25 10:16:11;;;;;;;13.27;12.18;;;;;;;;;;5021786;28;20044;-73
2023/08/25 10:18:41;;;;;;;13.00;12.00;;;;;;;;;;5008355;28;20025;-73
2023/08/25 10:21:09;;;;;;;13.30;12.30;;;;;;;;;;5025376;28;20127;-74
2023/08/25 10:23:37;;;;;;;13.93;12.83;;;;;;;;;;5019699;28;20064;-72
2023/08/25 10:26:04;;;;;;;12.97;12.17;;;;;;;;;;5023224;28;20041;-72
2023/08/25 10:28:32;;;;;;;14.25;13.18;;;;;;;;;;5024095;28;20116;-73
2023/08/25 10:30:58;;;;;;;13.48;12.60;;;;;;;;;;5022423;28;20440;-73
2023/08/25 10:33:23;;;;;;;13.85;12.75;;;;;;;;;;5022315;28;20033;-71
2023/08/25 10:35:53;;;;;;;13.18;12.27;;;;;;;;;;5023159;28;20548;-73
2023/08/25 10:38:19;;;;;;;12.90;12.10;;;;;;;;;;5022388;28;20036;-72
2023/08/25 10:40:53;;;;;;;13.70;12.70;;;;;;;;;;5018139;28;20041;-73
2023/08/25 10:43:25;;;;;;;13.48;12.55;;;;;;;;;;5023853;28;20059;-72
2023/08/25 10:45:52;;;;;;;12.65;11.85;;;;;;;;;;5023705;28;20033;-72
2023/08/25 10:48:19;;;;;;;13.55;12.45;;;;;;;;;;5022393;28;20444;-72
2023/08/25 10:50:45;;;;;;;13.13;12.23;;;;;;;;;;5022866;28;20970;-74
2023/08/25 10:53:37;;;;;;;12.75;11.80;;;;;;;;;;5025212;28;20033;-74
2023/08/25 10:56:23;;;;;;;12.70;11.85;;;;;;;;;;5019937;28;20485;-74
2023/08/25 10:59:10;;;;;;;12.77;11.88;;;;;;;;;;5018739;28;20033;-74
2023/08/25 11:01:36;;;;;;;12.73;11.93;;;;;;;;;;5023023;28;20586;-73
2023/08/25 11:04:06;;;;;;;13.38;12.48;;;;;;;;;;5016630;28;20104;-72
2023/08/25 11:06:41;;;;;;;14.05;13.00;;;;;;;;;;5016796;28;20040;-73
2023/08/25 11:09:27;;;;;;;13.55;12.70;;;;;;;;;;5017915;28;20701;-72
2023/08/25 11:12:04;;;;;;;12.48;11.68;;;;;;;;;;5022970;28;20583;-74
2023/08/25 11:14:32;;;;;;;13.20;12.00;;;;;;;;;;5018098;28;20505;-75
2023/08/25 11:16:58;;;;;;;12.60;11.70;;;;;;;;;;5019743;28;20467;-75
2023/08/25 11:19:30;;;;;;;13.15;12.25;;;;;;;;;;5022440;28;20064;-76
2023/08/25 11:22:00;;;;;;;12.98;11.60;;;;;;;;;;5017814;28;20128;-75
2023/08/25 11:24:29;;;;;;;12.25;11.50;;;;;;;;;;5022149;28;20029;-74
2023/08/25 11:26:54;;;;;;;12.70;11.70;;;;;;;;;;5018479;28;20560;-74
2023/08/25 11:29:20;;;;;;;12.50;11.60;;;;;;;;;;5019832;28;20100;-73
2023/08/25 11:31:46;;;;;;;12.55;11.75;;;;;;;;;;5003489;28;20033;-75
2023/08/25 11:34:13;;;;;;;12.48;11.68;;;;;;;;;;5016871;28;20037;-74
2023/08/25 11:36:38;;;;;;;13.32;12.10;;;;;;;;;;5017047;28;20037;-75
2023/08/25 11:39:04;;;;;;;12.77;11.85;;;;;;;;;;5019554;28;20144;-74
2023/08/25 11:41:30;;;;;;;12.73;11.75;;;;;;;;;;5019643;28;20037;-75
2023/08/25 11:43:55;;;;;;;12.70;11.80;;;;;;;;;;5014691;28;20037;-74
2023/08/25 11:46:22;;;;;;;13.07;12.18;;;;;;;;;;5020851;28;20111;-76
2023/08/25 11:48:48;;;;;;;12.68;11.63;;;;;;;;;;5003730;28;20509;-73
2023/08/25 11:51:16;;;;;;;12.40;11.48;;;;;;;;;;5021292;28;20485;-75
2023/08/25 11:53:42;;;;;;;12.05;11.05;;;;;;;;;;5017579;28;20042;-76
2023/08/25 11:56:16;;;;;;;12.52;11.43;;;;;;;;;;5018913;28;20041;-78
2023/08/25 11:58:46;;;;;;;12.68;11.77;;;;;;;;;;5002416;28;20040;-75
2023/08/25 12:01:12;;;;;;;13.13;12.10;;;;;;;;;;5033272;28;20025;-76
2023/08/25 12:03:39;;;;;;;13.13;11.98;;;;;;;;;;5008991;28;20033;-75
2023/08/25 12:06:06;;;;;;;13.30;12.23;;;;;;;;;;5047889;28;20154;-75
2023/08/25 12:08:33;;;;;;;12.38;11.48;;;;;;;;;;5021474;28;20110;-76
2023/08/25 12:11:00;;;;;;;12.60;11.80;;;;;;;;;;4983943;28;20045;-76
2023/08/25 12:13:30;;;;;;;12.75;11.80;;;;;;;;;;5020672;28;20077;-77
2023/08/25 12:15:57;;;;;;;12.73;11.77;;;;;;;;;;5018801;28;20036;-77
2023/08/25 12:18:30;;;;;;;12.75;11.95;;;;;;;;;;5022412;28;20025;-76
2023/08/25 12:20:55;;;;;;;12.05;11.10;;;;;;;;;;5017804;28;20052;-76
2023/08/25 12:23:21;;;;;;;12.15;11.15;;;;;;;;;;5022411;28;20652;-75
2023/08/25 12:25:47;;;;;;;12.25;11.30;;;;;;;;;;5017361;28;20049;-75
2023/08/25 12:28:12;;;;;;;12.55;11.55;;;;;;;;;;5023562;28;20128;-75
2023/08/25 12:30:38;;;;;;;12.43;11.43;;;;;;;;;;5024632;28;20037;-75
2023/08/25 12:33:05;;;;;;;12.30;11.30;;;;;;;;;;5022707;28;20100;-75
2023/08/25 12:35:31;;;;;;;12.15;11.10;;;;;;;;;;5019994;28;20497;-76
2023/08/25 12:37:57;;;;;;;11.98;11.02;;;;;;;;;;5019953;28;20106;-76
2023/08/25 12:40:24;;;;;;;11.32;10.52;;;;;;;;;;5023189;28;20037;-77
2023/08/25 12:42:53;;;;;;;11.00;10.30;;;;;;;;;;5020123;28;20097;-75
2023/08/25 12:45:24;;;;;;;11.32;10.52;;;;;;;;;;5018768;28;20762;-76
2023/08/25 12:47:50;;;;;;;11.75;10.65;;;;;;;;;;5014612;28;20199;-76
2023/08/25 12:50:16;;;;;;;10.95;10.10;;;;;;;;;;5018950;28;20424;-76
2023/08/25 12:52:42;;;;;;;11.05;10.25;;;;;;;;;;5018309;28;20473;-77
2023/08/25 12:55:10;;;;;;;11.52;10.73;;;;;;;;;;5020025;28;20045;-76
2023/08/25 12:57:37;;;;;;;11.30;10.40;;;;;;;;;;5047737;28;20037;-76
2023/08/25 13:00:04;;;;;;;11.77;10.88;;;;;;;;;;5021652;28;20044;-76
2023/08/25 13:02:30;;;;;;;11.25;10.45;;;;;;;;;;5022006;28;20041;-77
2023/08/25 13:04:56;;;;;;;11.23;10.32;;;;;;;;;;5022958;28;20063;-77
2023/08/25 13:07:22;;;;;;;11.43;10.50;;;;;;;;;;5020032;28;20029;-76
2023/08/25 13:09:48;;;;;;;11.52;10.52;;;;;;;;;;5022780;28;20052;-76
2023/08/25 13:12:15;;;;;;;11.55;10.57;;;;;;;;;;5019531;28;20037;-76
2023/08/25 13:14:42;;;;;;;10.93;10.23;;;;;;;;;;5014092;28;20029;-76
2023/08/25 13:17:08;;;;;;;11.05;10.25;;;;;;;;;;5015299;28;20034;-76
2023/08/25 13:19:33;;;;;;;11.35;10.55;;;;;;;;;;5017173;28;20063;-76
2023/08/25 13:21:59;;;;;;;11.07;10.38;;;;;;;;;;5015355;28;20052;-76
2023/08/25 13:24:25;;;;;;;11.75;10.73;;;;;;;;;;5013272;28;20041;-76
2023/08/25 13:26:51;;;;;;;11.50;10.63;;;;;;;;;;5017683;28;20041;-76
2023/08/25 13:29:17;;;;;;;11.40;10.60;;;;;;;;;;5001635;28;20037;-76
2023/08/25 13:31:43;;;;;;;11.70;10.90;;;;;;;;;;5020765;28;20086;-77
2023/08/25 13:34:09;;;;;;;11.50;10.70;;;;;;;;;;4999046;28;20059;-76
2023/08/25 13:36:34;;;;;;;11.35;10.63;;;;;;;;;;5020455;28;20033;-76
2023/08/25 13:39:00;;;;;;;11.80;10.88;;;;;;;;;;5017062;28;20061;-76
2023/08/25 13:41:25;;;;;;;11.75;10.75;;;;;;;;;;5018203;28;20040;-76
2023/08/25 13:43:51;;;;;;;11.38;10.57;;;;;;;;;;5018155;28;20048;-76
2023/08/25 13:46:17;;;;;;;11.32;10.43;;;;;;;;;;5014794;28;20598;-76
2023/08/25 13:48:42;;;;;;;11.40;10.50;;;;;;;;;;5019674;28;20037;-76
2023/08/25 13:51:08;;;;;;;11.45;10.65;;;;;;;;;;5023589;28;20037;-76
2023/08/25 13:53:35;;;;;;;12.00;10.90;;;;;;;;;;5025632;28;20116;-76
2023/08/25 13:56:02;;;;;;;11.77;10.45;;;;;;;;;;5024744;28;20034;-76
2023/08/25 13:58:28;;;;;;;12.00;10.43;;;;;;;;;;5023853;28;20160;-76
2023/08/25 14:00:54;;;;;;;11.93;10.90;;;;;;;;;;5024184;28;20568;-76
2023/08/25 14:03:25;;;;;;;11.32;10.50;;;;;;;;;;5026323;28;20040;-76
2023/08/25 14:05:50;;;;;;;12.20;11.07;;;;;;;;;;5024179;28;20033;-76
2023/08/25 14:08:16;;;;;;;11.63;10.73;;;;;;;;;;5024506;28;20029;-76
2023/08/25 14:10:42;;;;;;;12.20;11.20;;;;;;;;;;5026420;28;20570;-75
2023/08/25 14:13:08;;;;;;;11.55;10.57;;;;;;;;;;5023623;28;20047;-76
2023/08/25 14:15:33;;;;;;;11.15;10.40;;;;;;;;;;5023800;28;20511;-76
2023/08/25 14:17:59;;;;;;;12.02;11.13;;;;;;;;;;5023062;28;20037;-76